Time;durP1;ratioP1;P1;durP2;ratioP2;P2;SDS_P1;SDS_P2;PMS_P1;PMS_P2;Temp;Humidity;BMP_temperature;BMP_pressure;BME280_temperature;BME280_humidity;BME280_pressure;Samples;Min_cycle;Max_cycle;Signal;HPM_P1;HPM_P2
2021/10/22 00:01:50;;;;;;;6.03;2.13;;;16.30;53.60;;;;;;6230300;28;20129;-72
2021/10/22 00:04:52;;;;;;;9.45;2.17;;;16.30;53.50;;;;;;6226754;28;20486;-73
2021/10/22 00:07:52;;;;;;;7.35;1.98;;;16.40;53.60;;;;;;6226275;28;20117;-72
2021/10/22 00:10:53;;;;;;;4.40;2.03;;;16.30;53.50;;;;;;6225895;28;20052;-73
2021/10/22 00:13:54;;;;;;;9.20;1.60;;;16.40;53.50;;;;;;6226854;28;20371;-73
2021/10/22 00:16:55;;;;;;;5.82;1.70;;;16.40;53.60;;;;;;6226865;28;20034;-73
2021/10/22 00:19:56;;;;;;;6.50;1.75;;;16.40;53.60;;;;;;6225658;28;20478;-73
2021/10/22 00:22:57;;;;;;;9.77;2.10;;;16.30;53.70;;;;;;6226817;28;20038;-73
2021/10/22 00:25:58;;;;;;;7.88;1.90;;;16.40;53.80;;;;;;6225656;28;20042;-72
2021/10/22 00:29:00;;;;;;;5.30;1.67;;;16.30;53.80;;;;;;6225176;28;20076;-72
2021/10/22 00:32:01;;;;;;;8.15;1.95;;;16.30;53.80;;;;;;6227101;28;20046;-73
2021/10/22 00:35:02;;;;;;;6.75;2.33;;;16.30;53.80;;;;;;6226265;28;20048;-73
2021/10/22 00:38:03;;;;;;;7.50;1.90;;;16.20;53.90;;;;;;6225260;28;20333;-73
2021/10/22 00:41:05;;;;;;;7.40;1.95;;;16.20;53.90;;;;;;6225322;28;20121;-73
2021/10/22 00:44:07;;;;;;;6.75;2.28;;;16.20;54.00;;;;;;6241631;28;20041;-73
2021/10/22 00:47:09;;;;;;;4.07;1.95;;;16.10;54.00;;;;;;6224869;28;20061;-73
2021/10/22 00:50:10;;;;;;;9.07;2.30;;;16.10;54.10;;;;;;6225439;28;20034;-73
2021/10/22 00:53:11;;;;;;;8.60;1.98;;;16.20;54.10;;;;;;6225085;28;20367;-73
2021/10/22 00:56:12;;;;;;;6.10;2.08;;;16.20;54.10;;;;;;6208511;28;20084;-72
2021/10/22 00:59:13;;;;;;;10.23;2.50;;;16.10;54.20;;;;;;6225659;28;20149;-73
2021/10/22 01:02:15;;;;;;;6.28;1.80;;;16.10;54.40;;;;;;6226709;28;20038;-71
2021/10/22 01:05:16;;;;;;;7.32;2.40;;;16.10;54.40;;;;;;6240971;28;20037;-71
2021/10/22 01:08:18;;;;;;;7.07;2.30;;;16.10;54.50;;;;;;6225890;28;20111;-73
2021/10/22 01:11:20;;;;;;;9.65;2.42;;;16.10;54.50;;;;;;6225185;28;20033;-73
2021/10/22 01:14:21;;;;;;;6.45;1.98;;;16.00;54.50;;;;;;6224660;28;20355;-73
2021/10/22 01:17:41;;;;;;;5.47;1.67;;;16.00;54.60;;;;;;6225442;28;20076;-73
2021/10/22 01:20:43;;;;;;;11.10;2.70;;;16.00;54.70;;;;;;6221132;28;20041;-73
2021/10/22 01:23:45;;;;;;;7.68;1.80;;;16.00;54.70;;;;;;6223031;28;20045;-73
2021/10/22 01:26:47;;;;;;;6.90;2.05;;;16.00;54.80;;;;;;6222479;28;20049;-73
2021/10/22 01:29:48;;;;;;;9.38;2.60;;;16.00;54.80;;;;;;6221726;28;20041;-73
2021/10/22 01:32:53;;;;;;;6.55;2.05;;;16.00;54.90;;;;;;6224655;28;20103;-73
2021/10/22 01:35:53;;;;;;;5.90;2.30;;;15.90;55.00;;;;;;6221497;28;20124;-73
2021/10/22 01:38:54;;;;;;;5.50;1.80;;;15.90;55.10;;;;;;6236550;28;20474;-73
2021/10/22 01:41:55;;;;;;;6.05;2.13;;;15.90;55.00;;;;;;6205511;28;20054;-73
2021/10/22 01:44:56;;;;;;;6.63;1.77;;;15.90;55.00;;;;;;6221442;28;20046;-72
2021/10/22 01:47:57;;;;;;;10.80;2.45;;;15.90;55.00;;;;;;6222469;28;20166;-71
2021/10/22 01:50:59;;;;;;;10.57;2.13;;;15.90;55.10;;;;;;6222274;28;20511;-72
2021/10/22 01:54:01;;;;;;;4.57;1.83;;;15.90;55.10;;;;;;6237844;28;20034;-72
2021/10/22 01:57:03;;;;;;;4.68;1.60;;;15.90;55.10;;;;;;6221081;28;20034;-73
2021/10/22 02:00:05;;;;;;;4.40;1.95;;;15.80;55.10;;;;;;6222034;28;20398;-73
2021/10/22 02:03:14;;;;;;;9.13;2.30;;;15.80;55.20;;;;;;6221699;28;20045;-72
2021/10/22 02:06:14;;;;;;;5.70;2.00;;;15.80;55.20;;;;;;6222276;28;20053;-72
2021/10/22 02:09:18;;;;;;;4.97;1.80;;;15.70;55.10;;;;;;6221283;28;20088;-73
2021/10/22 02:12:21;;;;;;;10.63;2.03;;;15.70;55.10;;;;;;6221770;28;20045;-73
2021/10/22 02:15:23;;;;;;;5.70;1.60;;;15.70;55.10;;;;;;6219703;28;20095;-72
2021/10/22 02:18:24;;;;;;;3.85;1.58;;;15.70;55.10;;;;;;6220246;28;20034;-74
2021/10/22 02:21:26;;;;;;;5.10;1.60;;;15.70;55.20;;;;;;6221040;28;20049;-73
2021/10/22 02:24:27;;;;;;;9.85;1.98;;;15.70;55.30;;;;;;6221062;28;20053;-73
2021/10/22 02:27:28;;;;;;;6.40;2.10;;;15.60;55.20;;;;;;6221893;28;20048;-72
2021/10/22 02:30:31;;;;;;;6.22;2.03;;;15.60;55.40;;;;;;6203098;28;20056;-73
2021/10/22 02:33:32;;;;;;;7.93;1.92;;;15.60;55.50;;;;;;6228169;28;20034;-72
2021/10/22 02:36:33;;;;;;;8.18;1.80;;;15.60;55.60;;;;;;6221866;28;20033;-72
2021/10/22 02:39:35;;;;;;;7.05;2.03;;;15.60;55.70;;;;;;6204247;28;20046;-72
2021/10/22 02:42:36;;;;;;;3.88;2.03;;;15.60;55.80;;;;;;6220403;28;20052;-72
2021/10/22 02:45:37;;;;;;;8.90;2.00;;;15.60;55.80;;;;;;6221474;28;20045;-72
2021/10/22 02:48:38;;;;;;;8.43;2.33;;;15.60;55.90;;;;;;6220157;28;20231;-72
2021/10/22 02:51:39;;;;;;;7.68;1.98;;;15.50;56.00;;;;;;6232651;28;20044;-72
2021/10/22 02:54:39;;;;;;;10.85;2.08;;;15.50;56.00;;;;;;6204095;28;20033;-72
2021/10/22 02:57:41;;;;;;;4.57;1.50;;;15.50;56.00;;;;;;6221718;28;20042;-72
2021/10/22 03:00:42;;;;;;;3.78;1.50;;;15.50;56.00;;;;;;6216343;28;20141;-72
2021/10/22 03:03:43;;;;;;;7.22;1.80;;;15.40;55.90;;;;;;6225811;28;20038;-72
2021/10/22 03:06:44;;;;;;;5.18;1.73;;;15.40;56.60;;;;;;6226195;28;20113;-71
2021/10/22 03:09:45;;;;;;;6.63;1.83;;;15.40;56.10;;;;;;6225270;28;20047;-72
2021/10/22 03:12:46;;;;;;;8.23;1.88;;;15.30;56.10;;;;;;6226031;28;20046;-74
2021/10/22 03:15:47;;;;;;;6.55;1.95;;;15.30;56.20;;;;;;6225884;28;20058;-71
2021/10/22 03:18:48;;;;;;;6.00;2.08;;;15.30;56.30;;;;;;6222907;28;20041;-72
2021/10/22 03:21:49;;;;;;;6.30;2.00;;;15.20;56.40;;;;;;6224765;28;20061;-73
2021/10/22 03:24:51;;;;;;;6.25;1.80;;;15.20;56.40;;;;;;6225010;28;20065;-72
2021/10/22 03:27:53;;;;;;;4.30;1.73;;;15.10;56.50;;;;;;6225823;28;20053;-72
2021/10/22 03:30:53;;;;;;;8.80;2.10;;;15.10;56.60;;;;;;6223938;28;20048;-72
2021/10/22 03:33:55;;;;;;;11.77;2.33;;;15.10;56.70;;;;;;6228415;28;20038;-72
2021/10/22 03:36:55;;;;;;;8.10;2.15;;;15.00;56.80;;;;;;6222140;28;20458;-73
2021/10/22 03:39:56;;;;;;;4.20;1.75;;;15.00;56.90;;;;;;6224117;28;20042;-72
2021/10/22 03:42:58;;;;;;;8.85;2.10;;;14.90;57.00;;;;;;6225389;28;20421;-72
2021/10/22 03:46:00;;;;;;;9.40;2.13;;;14.90;57.10;;;;;;6223953;28;20521;-72
2021/10/22 03:49:01;;;;;;;8.32;2.33;;;14.90;57.20;;;;;;6221176;28;20073;-72
2021/10/22 03:52:02;;;;;;;6.35;2.55;;;14.90;57.30;;;;;;6223869;28;20413;-71
2021/10/22 03:55:03;;;;;;;10.07;2.33;;;14.80;57.20;;;;;;6225459;28;20392;-72
2021/10/22 03:58:04;;;;;;;4.40;1.80;;;14.80;57.20;;;;;;6221523;28;20034;-72
2021/10/22 04:01:04;;;;;;;4.60;1.50;;;14.80;57.30;;;;;;6223956;28;20033;-72
2021/10/22 04:04:05;;;;;;;4.60;1.95;;;14.80;57.40;;;;;;6225999;28;20046;-72
2021/10/22 04:07:06;;;;;;;6.78;1.83;;;14.70;57.40;;;;;;6224711;28;20038;-72
2021/10/22 04:10:08;;;;;;;6.32;2.30;;;14.70;57.40;;;;;;6225048;28;20121;-72
2021/10/22 04:13:11;;;;;;;5.47;2.53;;;14.70;57.40;;;;;;6223414;28;20117;-72
2021/10/22 04:16:12;;;;;;;4.63;1.80;;;14.70;57.50;;;;;;6223331;28;20052;-72
2021/10/22 04:19:12;;;;;;;6.28;1.90;;;14.70;57.50;;;;;;6224555;28;20029;-74
2021/10/22 04:22:14;;;;;;;8.00;2.10;;;14.70;57.50;;;;;;6223429;28;20443;-72
2021/10/22 04:25:14;;;;;;;7.63;1.75;;;14.70;57.50;;;;;;6223917;28;20125;-72
2021/10/22 04:28:16;;;;;;;8.10;2.13;;;14.70;57.60;;;;;;6224231;28;20034;-71
2021/10/22 04:31:17;;;;;;;3.38;1.60;;;14.70;57.60;;;;;;6223821;28;20037;-73
2021/10/22 04:34:17;;;;;;;5.65;1.88;;;14.70;57.70;;;;;;6222693;28;20478;-72
2021/10/22 04:37:33;;;;;;;2.45;1.58;;;14.70;57.80;;;;;;6239260;28;20042;-72
2021/10/22 04:40:33;;;;;;;6.72;2.25;;;14.70;57.80;;;;;;6223362;28;20053;-72
2021/10/22 04:43:34;;;;;;;8.88;1.70;;;14.70;57.80;;;;;;6223721;28;20057;-72
2021/10/22 04:46:35;;;;;;;5.07;2.15;;;14.70;57.80;;;;;;6215296;28;20101;-72
2021/10/22 04:49:36;;;;;;;7.03;1.88;;;14.70;57.70;;;;;;6238278;28;20048;-73
2021/10/22 04:52:38;;;;;;;8.27;2.35;;;14.70;57.60;;;;;;6223535;28;20037;-73
2021/10/22 04:55:39;;;;;;;10.75;1.73;;;14.60;57.60;;;;;;6239179;28;20076;-73
2021/10/22 04:58:39;;;;;;;6.40;2.00;;;14.60;57.70;;;;;;6221843;28;20204;-73
2021/10/22 05:01:40;;;;;;;9.38;1.60;;;14.50;57.70;;;;;;6225145;28;20355;-73
2021/10/22 05:04:41;;;;;;;10.27;2.40;;;14.40;57.70;;;;;;6222499;28;20030;-73
2021/10/22 05:07:42;;;;;;;7.22;1.85;;;14.40;57.80;;;;;;6223416;28;20057;-73
2021/10/22 05:10:44;;;;;;;6.20;2.08;;;14.30;58.00;;;;;;6222310;28;20048;-72
2021/10/22 05:13:44;;;;;;;5.50;1.77;;;14.30;58.20;;;;;;6221979;28;20034;-72
2021/10/22 05:16:45;;;;;;;5.50;1.77;;;14.20;58.30;;;;;;6202948;28;20044;-73
2021/10/22 05:19:46;;;;;;;5.97;2.40;;;14.20;58.50;;;;;;6221955;28;20410;-72
2021/10/22 05:22:47;;;;;;;6.85;1.70;;;14.20;58.70;;;;;;6222814;28;20095;-72
2021/10/22 05:25:48;;;;;;;4.93;1.75;;;14.10;58.70;;;;;;6236995;28;20341;-72
2021/10/22 05:28:49;;;;;;;6.07;2.38;;;14.10;58.90;;;;;;6221095;28;20574;-72
2021/10/22 05:31:50;;;;;;;10.15;2.00;;;14.10;58.90;;;;;;6224805;28;20408;-73
2021/10/22 05:34:51;;;;;;;5.90;2.03;;;14.10;58.90;;;;;;6237757;28;20042;-73
2021/10/22 05:37:51;;;;;;;6.18;1.75;;;14.10;58.90;;;;;;6235187;28;20109;-73
2021/10/22 05:40:52;;;;;;;11.30;2.53;;;14.10;58.90;;;;;;6221526;28;20463;-72
2021/10/22 05:43:53;;;;;;;7.13;2.50;;;14.00;58.90;;;;;;6221243;28;20034;-73
2021/10/22 05:46:55;;;;;;;3.05;1.70;;;14.00;59.10;;;;;;6220998;28;20045;-74
2021/10/22 05:49:56;;;;;;;3.97;1.65;;;14.00;59.20;;;;;;6204393;28;20034;-74
2021/10/22 05:52:57;;;;;;;6.13;2.22;;;14.00;59.20;;;;;;6235028;28;20084;-73
2021/10/22 05:55:58;;;;;;;4.75;2.28;;;13.90;59.30;;;;;;6233696;28;20046;-73
2021/10/22 05:58:59;;;;;;;8.77;2.55;;;13.90;59.30;;;;;;6220600;28;20034;-72
2021/10/22 06:02:00;;;;;;;6.85;2.55;;;13.90;59.40;;;;;;6221548;28;20124;-74
2021/10/22 06:05:01;;;;;;;7.10;2.53;;;13.90;59.40;;;;;;6218278;28;20100;-73
2021/10/22 06:08:02;;;;;;;5.82;2.20;;;13.90;59.40;;;;;;6220239;28;20038;-72
2021/10/22 06:11:09;;;;;;;5.65;2.08;;;13.90;59.40;;;;;;6218674;28;20037;-74
2021/10/22 06:14:10;;;;;;;10.05;2.38;;;13.90;59.40;;;;;;6203925;28;20030;-72
2021/10/22 06:17:11;;;;;;;6.72;2.58;;;13.90;59.40;;;;;;6220438;28;20355;-74
2021/10/22 06:20:15;;;;;;;9.60;2.67;;;13.90;59.50;;;;;;6204011;28;20414;-74
2021/10/22 06:26:38;;;;;;;6.90;2.63;;;13.90;59.50;;;;;;6221330;28;20367;-74
2021/10/22 06:29:39;;;;;;;13.60;3.22;;;13.90;59.50;;;;;;6221276;28;20033;-74
2021/10/22 06:32:40;;;;;;;18.10;3.63;;;13.90;59.40;;;;;;6224735;28;20479;-74
2021/10/22 06:35:44;;;;;;;14.02;3.72;;;13.90;59.40;;;;;;6216806;28;20379;-74
2021/10/22 06:38:45;;;;;;;9.02;3.53;;;13.90;59.40;;;;;;6223425;28;20042;-74
2021/10/22 06:41:45;;;;;;;11.32;4.13;;;13.90;59.30;;;;;;6223618;28;20049;-75
2021/10/22 06:44:46;;;;;;;9.52;3.78;;;14.00;59.30;;;;;;6223517;28;20113;-72
2021/10/22 06:47:48;;;;;;;11.50;2.63;;;13.90;59.30;;;;;;6222769;28;20022;-73
2021/10/22 06:50:49;;;;;;;12.82;2.30;;;14.00;59.30;;;;;;6223316;28;20108;-73
2021/10/22 06:53:50;;;;;;;10.25;2.30;;;14.00;59.20;;;;;;6222936;28;20041;-73
2021/10/22 06:56:51;;;;;;;4.40;1.80;;;14.10;59.30;;;;;;6223393;28;20038;-73
2021/10/22 06:59:52;;;;;;;11.98;2.47;;;14.10;59.20;;;;;;6218659;28;20483;-73
2021/10/22 07:02:55;;;;;;;10.60;2.13;;;14.20;59.20;;;;;;6206932;28;20054;-73
2021/10/22 07:08:58;;;;;;;4.07;1.55;;;14.20;59.30;;;;;;6224142;28;20076;-74
2021/10/22 07:11:59;;;;;;;5.80;1.80;;;14.30;59.30;;;;;;6223021;28;20356;-74
2021/10/22 07:15:02;;;;;;;4.35;1.60;;;14.30;59.00;;;;;;6222684;28;20044;-73
2021/10/22 07:18:04;;;;;;;5.45;1.95;;;14.40;59.00;;;;;;6223140;28;20034;-73
2021/10/22 07:21:05;;;;;;;11.90;2.22;;;14.40;58.90;;;;;;6222510;28;20374;-73
2021/10/22 07:24:11;;;;;;;8.43;2.45;;;14.50;58.70;;;;;;6223826;28;20045;-74
2021/10/22 07:27:12;;;;;;;7.72;2.72;;;14.50;58.50;;;;;;6222534;28;20030;-74
2021/10/22 07:30:13;;;;;;;15.57;3.70;;;14.60;58.90;;;;;;6223592;28;20460;-73
2021/10/22 07:33:15;;;;;;;7.32;3.65;;;14.70;58.20;;;;;;6202106;28;20045;-73
2021/10/22 07:36:16;;;;;;;8.15;2.05;;;14.70;58.00;;;;;;6222228;28;20092;-73
2021/10/22 07:39:19;;;;;;;5.15;2.53;;;14.70;58.00;;;;;;6147396;28;2180581;-73
2021/10/22 07:42:21;;;;;;;13.23;3.38;;;14.70;58.00;;;;;;6222788;28;20038;-73
2021/10/22 07:45:22;;;;;;;18.70;3.88;;;14.80;58.10;;;;;;6224548;28;20042;-73
2021/10/22 07:48:23;;;;;;;5.72;2.83;;;14.80;58.10;;;;;;6222442;28;20060;-73
2021/10/22 07:51:25;;;;;;;14.38;2.95;;;14.80;58.10;;;;;;6224622;28;20041;-73
2021/10/22 07:54:26;;;;;;;10.07;2.70;;;14.90;58.00;;;;;;6223930;28;20038;-74
2021/10/22 07:57:28;;;;;;;12.82;2.70;;;15.00;57.90;;;;;;6223175;28;20038;-75
2021/10/22 08:00:29;;;;;;;10.60;3.35;;;15.10;57.60;;;;;;6221618;28;20121;-74
2021/10/22 08:03:30;;;;;;;6.35;2.65;;;15.20;57.20;;;;;;6231794;28;20347;-75
2021/10/22 08:06:31;;;;;;;9.68;2.45;;;15.20;57.10;;;;;;6224531;28;20038;-75
2021/10/22 08:09:32;;;;;;;8.60;2.40;;;15.30;57.00;;;;;;6227964;28;20385;-74
2021/10/22 08:12:34;;;;;;;9.75;2.95;;;15.40;56.80;;;;;;6224274;28;20072;-73
2021/10/22 08:15:35;;;;;;;4.97;2.08;;;15.50;56.60;;;;;;6225707;28;20034;-74
2021/10/22 08:18:38;;;;;;;6.97;2.55;;;15.60;56.30;;;;;;6224192;28;20034;-72
2021/10/22 08:24:40;;;;;;;13.55;3.13;;;15.70;56.50;;;;;;6224420;28;20049;-72
2021/10/22 08:27:46;;;;;;;8.10;2.75;;;15.80;55.70;;;;;;6223944;28;20124;-73
2021/10/22 08:30:55;;;;;;;8.75;2.53;;;15.90;55.50;;;;;;6224696;28;20046;-73
2021/10/22 08:33:56;;;;;;;9.38;2.38;;;16.00;55.30;;;;;;6223298;28;20030;-73
2021/10/22 08:36:56;;;;;;;9.80;3.08;;;16.20;55.10;;;;;;6224419;28;20117;-73
2021/10/22 08:39:57;;;;;;;7.85;2.83;;;16.20;54.80;;;;;;6240308;28;20045;-73
2021/10/22 08:42:58;;;;;;;8.88;2.60;;;16.30;54.60;;;;;;6224251;28;20057;-73
2021/10/22 08:46:06;;;;;;;4.72;2.33;;;16.30;54.50;;;;;;6223488;28;20040;-73
2021/10/22 08:49:11;;;;;;;8.02;3.10;;;16.30;54.40;;;;;;6222681;28;20041;-74
2021/10/22 08:52:12;;;;;;;10.35;2.92;;;16.40;54.40;;;;;;6225146;28;20042;-74
2021/10/22 08:55:16;;;;;;;5.13;2.45;;;16.50;54.20;;;;;;6223920;28;20429;-74
2021/10/22 08:58:19;;;;;;;6.90;2.33;;;16.60;54.10;;;;;;6223115;28;20068;-74
2021/10/22 09:01:20;;;;;;;16.25;6.38;;;16.60;53.90;;;;;;6224687;28;20126;-73
2021/10/22 09:04:32;;;;;;;11.85;2.90;;;16.80;53.80;;;;;;6223301;28;20050;-74
2021/10/22 09:07:42;;;;;;;7.00;2.42;;;16.90;54.20;;;;;;6222261;28;20180;-74
2021/10/22 09:10:44;;;;;;;10.68;2.30;;;17.00;53.30;;;;;;6221949;28;20042;-74
2021/10/22 09:14:02;;;;;;;6.63;2.10;;;17.10;52.90;;;;;;6204841;28;20046;-73
2021/10/22 09:17:11;;;;;;;5.30;1.92;;;17.10;52.80;;;;;;6221921;28;20042;-74
2021/10/22 09:20:14;;;;;;;8.25;2.20;;;17.20;52.80;;;;;;6222686;28;20038;-73
2021/10/22 09:23:25;;;;;;;11.18;3.25;;;17.20;52.70;;;;;;6223044;28;20123;-73
2021/10/22 09:26:30;;;;;;;8.10;1.95;;;17.30;52.60;;;;;;6222218;28;20109;-74
2021/10/22 09:29:31;;;;;;;6.88;2.15;;;17.40;52.50;;;;;;6222481;28;20042;-73
2021/10/22 09:32:32;;;;;;;6.80;2.40;;;17.50;52.60;;;;;;6226509;28;20112;-74
2021/10/22 09:35:41;;;;;;;7.00;2.80;;;17.60;52.60;;;;;;6221858;28;20499;-74
2021/10/22 09:38:42;;;;;;;5.07;1.92;;;17.60;52.60;;;;;;6220747;28;20034;-74
2021/10/22 09:41:56;;;;;;;4.63;2.00;;;17.70;52.50;;;;;;6220957;28;20100;-74
2021/10/22 09:44:57;;;;;;;3.70;1.35;;;17.80;52.10;;;;;;6229053;28;20060;-73
2021/10/22 09:47:58;;;;;;;5.93;2.30;;;17.90;51.80;;;;;;6218130;28;20029;-73
2021/10/22 09:51:30;;;;;;;5.82;1.55;;;18.00;51.50;;;;;;6237834;28;20045;-74
2021/10/22 09:54:31;;;;;;;7.15;1.77;;;18.00;51.40;;;;;;6220202;28;20069;-75
2021/10/22 09:57:32;;;;;;;4.57;1.77;;;18.10;51.20;;;;;;6220670;28;20033;-74
2021/10/22 10:00:36;;;;;;;7.18;1.83;;;18.10;51.20;;;;;;6220337;28;20056;-74
2021/10/22 10:03:40;;;;;;;7.00;3.28;;;18.10;51.20;;;;;;6212856;28;20101;-73
2021/10/22 10:06:43;;;;;;;7.22;1.73;;;18.30;51.10;;;;;;6214807;28;20093;-74
2021/10/22 10:09:45;;;;;;;4.35;1.80;;;18.50;50.60;;;;;;6220367;28;20502;-75
2021/10/22 10:12:46;;;;;;;4.28;1.27;;;18.70;50.50;;;;;;6220696;28;20073;-74
2021/10/22 10:15:47;;;;;;;5.00;1.65;;;19.00;50.20;;;;;;6222166;28;20056;-74
2021/10/22 10:19:10;;;;;;;2.42;1.15;;;19.30;50.10;;;;;;6220640;28;20155;-74
2021/10/22 10:22:13;;;;;;;6.30;1.80;;;19.50;49.70;;;;;;6219083;28;20041;-74
2021/10/22 10:25:22;;;;;;;3.08;1.25;;;19.60;49.50;;;;;;6198034;28;20117;-73
2021/10/22 10:28:39;;;;;;;6.53;1.50;;;19.50;49.50;;;;;;6186566;28;20034;-74
2021/10/22 10:31:43;;;;;;;4.78;1.50;;;19.50;49.60;;;;;;6221171;28;20375;-74
2021/10/22 10:34:45;;;;;;;4.75;1.73;;;19.60;49.40;;;;;;6219506;28;20451;-75
2021/10/22 10:37:51;;;;;;;3.15;1.50;;;19.80;49.10;;;;;;6217735;28;20037;-76
2021/10/22 10:40:52;;;;;;;4.80;2.05;;;19.90;48.70;;;;;;6218026;28;20371;-73
2021/10/22 10:44:39;;;;;;;1.85;1.23;;;20.10;48.60;;;;;;6234943;28;20044;-74
2021/10/22 10:47:48;;;;;;;2.85;1.00;;;20.20;48.40;;;;;;6215953;28;20275;-73
2021/10/22 10:50:55;;;;;;;6.25;1.50;;;20.40;47.70;;;;;;6220011;28;20044;-74
2021/10/22 10:54:02;;;;;;;4.43;1.40;;;20.60;47.30;;;;;;6218790;28;20046;-73
2021/10/22 10:57:23;;;;;;;3.63;1.25;;;20.70;46.70;;;;;;6219741;28;20046;-73
2021/10/22 11:00:37;;;;;;;2.15;1.23;;;20.90;46.00;;;;;;6220139;28;20125;-75
2021/10/22 11:03:46;;;;;;;1.73;0.90;;;21.20;45.20;;;;;;6217554;28;20034;-75
2021/10/22 11:06:50;;;;;;;9.93;1.15;;;21.40;44.60;;;;;;6218849;28;20104;-75
2021/10/22 11:09:52;;;;;;;2.15;0.95;;;21.60;44.00;;;;;;6219630;28;20042;-74
2021/10/22 11:13:14;;;;;;;1.38;0.93;;;21.90;43.50;;;;;;6219913;28;20053;-74
2021/10/22 11:16:21;;;;;;;5.00;1.10;;;21.90;42.70;;;;;;6215262;28;20045;-73
2021/10/22 11:19:28;;;;;;;8.50;1.27;;;21.90;42.60;;;;;;6218362;28;20057;-75
2021/10/22 11:22:30;;;;;;;4.55;1.10;;;21.70;42.70;;;;;;6219673;28;20038;-75
2021/10/22 11:25:33;;;;;;;1.05;0.82;;;21.50;43.00;;;;;;6223345;28;20030;-74
2021/10/22 11:28:34;;;;;;;4.65;1.50;;;21.50;43.00;;;;;;6205961;28;20176;-74
2021/10/22 11:31:44;;;;;;;3.10;1.13;;;21.70;42.80;;;;;;6241206;28;20098;-74
2021/10/22 11:35:02;;;;;;;1.55;1.00;;;22.00;41.60;;;;;;6224578;28;20042;-74
2021/10/22 11:38:05;;;;;;;4.40;1.00;;;22.40;40.70;;;;;;6220681;28;20080;-74
2021/10/22 11:41:13;;;;;;;2.78;0.75;;;22.90;39.80;;;;;;6224545;28;20049;-74
2021/10/22 11:44:14;;;;;;;6.30;1.10;;;23.30;38.90;;;;;;6224459;28;20049;-74
2021/10/22 11:47:15;;;;;;;7.72;1.20;;;23.80;38.20;;;;;;6223328;28;20026;-74
2021/10/22 11:50:21;;;;;;;6.78;1.23;;;24.20;36.80;;;;;;6223259;28;20049;-74
2021/10/22 11:53:25;;;;;;;3.88;1.00;;;24.50;36.10;;;;;;6222616;28;20084;-74
2021/10/22 11:56:26;;;;;;;2.05;0.88;;;24.70;35.70;;;;;;6222826;28;20074;-73
2021/10/22 11:59:27;;;;;;;0.82;0.60;;;24.90;35.10;;;;;;6221908;28;20048;-74
2021/10/22 12:02:30;;;;;;;7.57;0.90;;;24.90;34.80;;;;;;6224599;28;20034;-74
2021/10/22 12:05:33;;;;;;;1.88;0.82;;;25.00;34.60;;;;;;6239336;28;20092;-73
2021/10/22 12:08:33;;;;;;;6.13;1.70;;;24.90;33.90;;;;;;6236813;28;20115;-74
2021/10/22 12:11:34;;;;;;;1.60;1.00;;;25.20;33.40;;;;;;6230974;28;20046;-74
2021/10/22 12:14:41;;;;;;;0.82;0.50;;;25.40;32.90;;;;;;6220103;28;20042;-75
2021/10/22 12:17:42;;;;;;;3.30;0.70;;;25.70;32.60;;;;;;6224789;28;20042;-74
2021/10/22 12:20:43;;;;;;;0.75;0.50;;;26.10;32.00;;;;;;6224860;28;20041;-72
2021/10/22 12:23:44;;;;;;;2.58;0.77;;;26.40;31.50;;;;;;6223392;28;20141;-74
2021/10/22 12:26:45;;;;;;;1.55;0.60;;;26.20;30.70;;;;;;6217594;28;20128;-72
2021/10/22 12:29:53;;;;;;;2.15;0.68;;;25.40;31.60;;;;;;6222981;28;20360;-73
2021/10/22 12:33:04;;;;;;;0.95;0.50;;;24.70;32.20;;;;;;6206665;28;20038;-73
2021/10/22 12:36:15;;;;;;;1.65;0.40;;;23.90;32.90;;;;;;6221868;28;20038;-73
2021/10/22 12:39:20;;;;;;;2.83;0.60;;;23.20;33.60;;;;;;6221925;28;20034;-73
2021/10/22 12:42:23;;;;;;;0.93;0.55;;;22.70;34.10;;;;;;6206780;28;20509;-73
2021/10/22 12:45:24;;;;;;;0.63;0.50;;;22.30;34.10;;;;;;6239421;28;20325;-72
2021/10/22 12:48:44;;;;;;;1.10;0.60;;;22.00;34.20;;;;;;6223800;28;20091;-73
2021/10/22 12:51:53;;;;;;;0.98;0.43;;;21.50;34.60;;;;;;6206371;28;20026;-73
2021/10/22 12:54:54;;;;;;;1.70;0.40;;;21.40;35.00;;;;;;6223524;28;20038;-73
2021/10/22 12:58:16;;;;;;;0.75;0.45;;;21.30;35.30;;;;;;6223167;28;20092;-73
2021/10/22 13:01:17;;;;;;;1.92;0.50;;;21.20;35.50;;;;;;6217420;28;20041;-73
2021/10/22 13:04:22;;;;;;;0.80;0.40;;;21.20;35.40;;;;;;6222162;28;20414;-75
2021/10/22 13:07:34;;;;;;;0.50;0.38;;;21.00;35.40;;;;;;6241034;28;20037;-74
2021/10/22 13:10:50;;;;;;;3.60;0.60;;;20.90;35.60;;;;;;6203834;28;20034;-73
2021/10/22 13:23:36;;;;;;;0.60;0.32;;;20.70;35.60;;;;;;6219669;28;20462;-74
2021/10/22 13:26:41;;;;;;;1.70;0.50;;;20.60;36.00;;;;;;6234619;28;20063;-74
2021/10/22 13:29:42;;;;;;;3.28;0.75;;;20.50;36.30;;;;;;6218542;28;20065;-75
2021/10/22 13:32:45;;;;;;;4.90;0.80;;;20.40;36.70;;;;;;6202723;28;20045;-73
2021/10/22 13:35:46;;;;;;;1.85;0.73;;;20.40;37.10;;;;;;6234523;28;20092;-74
2021/10/22 13:38:46;;;;;;;0.38;0.30;;;20.30;37.00;;;;;;6217599;28;20057;-73
2021/10/22 13:41:47;;;;;;;10.18;0.88;;;20.30;37.00;;;;;;6195257;28;20134;-72
2021/10/22 13:44:48;;;;;;;1.75;0.70;;;20.20;37.20;;;;;;6214340;28;20427;-73
2021/10/22 13:47:50;;;;;;;5.78;0.80;;;20.10;37.50;;;;;;6229008;28;20026;-74
2021/10/22 13:50:51;;;;;;;6.07;0.50;;;20.00;37.80;;;;;;6218229;28;20404;-74
2021/10/22 13:53:53;;;;;;;2.28;0.70;;;20.10;38.00;;;;;;6215538;28;20030;-73
2021/10/22 13:56:54;;;;;;;1.40;0.60;;;20.10;37.90;;;;;;6198373;28;20068;-73
2021/10/22 13:59:55;;;;;;;2.05;0.50;;;20.20;37.80;;;;;;6217450;28;20112;-72
2021/10/22 14:02:56;;;;;;;0.43;0.32;;;20.10;37.80;;;;;;6219366;28;20041;-74
2021/10/22 14:05:57;;;;;;;1.40;0.47;;;20.00;37.90;;;;;;6214213;28;20034;-73
2021/10/22 14:08:58;;;;;;;1.13;0.55;;;20.00;38.00;;;;;;6217624;28;20149;-73
2021/10/22 14:12:08;;;;;;;0.43;0.43;;;19.90;38.00;;;;;;6223025;28;20033;-72
2021/10/22 14:31:19;;;;;;;1.42;0.60;;;19.60;38.30;;;;;;6228414;28;20034;-74
2021/10/22 14:34:20;;;;;;;0.60;0.57;;;19.50;38.20;;;;;;6217875;28;20045;-73
2021/10/22 14:37:21;;;;;;;2.05;0.68;;;19.50;38.50;;;;;;6234883;28;20084;-71
2021/10/22 14:40:22;;;;;;;1.85;0.68;;;19.40;38.50;;;;;;6217638;28;20415;-72
2021/10/22 14:43:30;;;;;;;1.02;0.57;;;19.30;38.40;;;;;;6202478;28;20100;-72
2021/10/22 14:46:46;;;;;;;2.25;0.57;;;19.30;38.20;;;;;;6219177;28;20034;-73
2021/10/22 14:49:50;;;;;;;3.63;0.60;;;19.20;38.30;;;;;;6217541;28;20108;-74
2021/10/22 14:55:55;;;;;;;1.52;0.73;;;19.00;37.90;;;;;;6217599;28;20034;-73
2021/10/22 14:58:59;;;;;;;1.75;0.50;;;19.00;37.80;;;;;;6222309;28;20058;-73
2021/10/22 15:02:05;;;;;;;0.93;0.52;;;19.00;37.60;;;;;;6222135;28;20034;-72
2021/10/22 15:05:07;;;;;;;2.20;0.68;;;19.00;37.40;;;;;;6224575;28;20038;-73
2021/10/22 15:08:15;;;;;;;2.65;0.80;;;18.90;36.90;;;;;;6229116;28;20091;-73
2021/10/22 15:11:19;;;;;;;0.75;0.43;;;18.90;36.90;;;;;;6216902;28;20034;-73
2021/10/22 15:14:20;;;;;;;1.92;0.60;;;18.90;36.90;;;;;;6207212;28;20026;-72
2021/10/22 15:17:21;;;;;;;0.57;0.50;;;18.90;36.50;;;;;;6239814;28;20154;-72
2021/10/22 15:20:22;;;;;;;3.10;0.60;;;18.90;36.40;;;;;;6207224;28;20049;-72
2021/10/22 15:23:23;;;;;;;0.70;0.60;;;18.90;36.20;;;;;;6224642;28;20489;-74
2021/10/22 15:26:24;;;;;;;2.80;0.57;;;18.80;36.10;;;;;;6223283;28;20390;-73
2021/10/22 15:29:25;;;;;;;2.80;0.57;;;18.80;36.00;;;;;;6215423;28;20044;-73
2021/10/22 15:32:26;;;;;;;2.50;0.60;;;18.70;35.80;;;;;;6237177;28;20050;-72
2021/10/22 15:35:27;;;;;;;5.88;0.47;;;18.70;35.60;;;;;;6207414;28;20044;-73
2021/10/22 15:38:29;;;;;;;2.45;0.65;;;18.70;35.80;;;;;;6223234;28;20041;-74
2021/10/22 15:41:30;;;;;;;1.00;0.45;;;18.60;35.80;;;;;;6222800;28;20060;-74
2021/10/22 15:44:31;;;;;;;2.15;0.60;;;18.70;35.60;;;;;;6222665;28;20422;-74
2021/10/22 15:47:33;;;;;;;2.83;1.00;;;18.70;35.60;;;;;;6221346;28;20348;-74
2021/10/22 15:50:38;;;;;;;2.33;0.57;;;18.60;35.50;;;;;;6205409;28;20056;-73
2021/10/22 15:53:40;;;;;;;2.60;0.55;;;18.60;35.50;;;;;;6224146;28;20061;-74
2021/10/22 15:56:41;;;;;;;4.15;0.88;;;18.50;35.60;;;;;;6224527;28;20451;-73
2021/10/22 15:59:45;;;;;;;1.92;0.50;;;18.40;35.50;;;;;;6224104;28;20049;-74
2021/10/22 16:02:45;;;;;;;2.65;0.85;;;18.40;35.80;;;;;;6237152;28;20070;-74
2021/10/22 16:05:52;;;;;;;5.45;0.93;;;18.30;35.90;;;;;;6222760;28;20083;-73
2021/10/22 16:12:13;;;;;;;1.52;0.60;;;18.20;36.20;;;;;;6220067;28;20100;-74
2021/10/22 16:18:45;;;;;;;0.57;0.52;;;18.10;36.60;;;;;;6195476;28;20034;-75
2021/10/22 16:21:47;;;;;;;1.20;0.60;;;18.10;36.80;;;;;;6195270;28;20038;-73
2021/10/22 16:24:48;;;;;;;1.48;0.70;;;18.00;36.90;;;;;;6193556;28;20042;-75
2021/10/22 16:27:49;;;;;;;4.25;0.93;;;17.90;36.90;;;;;;6166008;28;20041;-74
2021/10/22 16:30:49;;;;;;;5.75;0.90;;;17.90;37.10;;;;;;6178447;28;20607;-73
2021/10/22 16:36:51;;;;;;;1.83;0.70;;;17.80;37.50;;;;;;6194470;28;20046;-74
2021/10/22 16:39:53;;;;;;;5.05;0.80;;;17.80;37.60;;;;;;6177074;28;20056;-74